Torino, Italy

8:15 AM CEST on August 22, 2014 (GMT +0200)
CIRIE' | Change Station
CLOSE
Current Station
Personal Weather Station
Location: Cirie, Piemonte
Elevation: 1132 ft
Nearby Weather Stations
Active Advisory: Thunderstorms

Elev 1132 ft 45.23 °N, 7.60 °E | Updated 4 seconds ago

Partly Cloudy
Partly Cloudy
65.5 °F
Feels Like 65.5 °F
N
0.0
Wind Variable Wind from North
Gusts 0.7 mph

Today
High -- | Low -- °F
--% Chance of Precip.
Yesterday
High -- | Low -- °F
Precip. -- in
6:38 AM 8:25 PM
Waning Crescent, 10% visible
Pressure 29.98 in
Visibility 6.2 miles
Clouds Few 3300 ft
Dew Point 56 °F
Humidity 71%
Rainfall 0.00 in
Snow Depth Not available.
UV 1 out of 12
Pollen Not available.
Air Quality Not available.
Flu Activity Not available.
METAR LIMK 220555Z 02003KT 9999 FEW033 16/14 Q1015 RMK SCT VAL NIL VIS MIN 9999

More Conditions Fewer Conditions

Pressure 29.98 in
Visibility 6.2 miles
Clouds Few 3300 ft
Dew Point 56 °F
Humidity 71%
Rainfall 0.00 in
Snow Depth Not available.
UV 1 out of 12
Pollen Not available.
Air Quality Not available.
Flu Activity Not available.
METAR LIMK 220555Z 02003KT 9999 FEW033 16/14 Q1015 RMK SCT VAL NIL VIS MIN 9999

More Conditions Fewer Conditions

10-Day Weather Forecast

Almanac

Astronomy

Aug. 22, 2014 Rise Set
Actual Time 6:38 AM CEST 8:25 PM CEST
Civil Twilight 6:07 AM CEST 8:56 PM CEST
Nautical Twilight 5:29 AM CEST 9:34 PM CEST
Astronomical Twilight 4:47 AM CEST 10:15 PM CEST
Moon 3:43 AM CEST 6:25 PM CEST
Length of Visible Light 14h 48m
Length of Day
13h 46m
Tomorrow will be 2m 56s shorter.
Waning Crescent, 10% of the Moon is Illuminated
Today
Waning Crescent
Aug 25
New
Sep 2
First Quarter
Sep 8
Full
Sep 15
Last Quarter

Yesterday's Extremes

Country Highs Country Lows

Community

WunderPhotos

Upload Photos

1,746,131 photos uploaded!

Nearby

Snow Depth

Not available.

Earthquake Activity

City Distance Mag. Time & Date
No recent earthquake activity has been reported nearby.
Minimum magnitude displayed is 2.5.

Coastal Water Temperatures

Place Temperature
No Stations Reporting

Nearby Weather Stations